sensor_id;sensor_type;location;lat;lon;timestamp;P1;durP1;ratioP1;P2;durP2;ratioP2
26936;SDS011;14495;48.116;11.676;2022-07-11T00:00:05;4.53;;;1.45;;
26936;SDS011;14495;48.116;11.676;2022-07-11T00:02:33;6.45;;;1.55;;
26936;SDS011;14495;48.116;11.676;2022-07-11T00:04:59;2.03;;;1.30;;
26936;SDS011;14495;48.116;11.676;2022-07-11T00:07:24;4.07;;;1.20;;
26936;SDS011;14495;48.116;11.676;2022-07-11T00:09:50;3.95;;;1.40;;
26936;SDS011;14495;48.116;11.676;2022-07-11T00:12:15;3.13;;;1.48;;
26936;SDS011;14495;48.116;11.676;2022-07-11T00:14:41;4.88;;;1.70;;
26936;SDS011;14495;48.116;11.676;2022-07-11T00:17:07;2.15;;;1.40;;
26936;SDS011;14495;48.116;11.676;2022-07-11T00:19:34;5.68;;;1.23;;
26936;SDS011;14495;48.116;11.676;2022-07-11T00:22:02;4.30;;;1.30;;
26936;SDS011;14495;48.116;11.676;2022-07-11T00:24:28;6.00;;;1.42;;
26936;SDS011;14495;48.116;11.676;2022-07-11T00:26:54;3.28;;;1.42;;
26936;SDS011;14495;48.116;11.676;2022-07-11T00:29:19;4.10;;;1.60;;
26936;SDS011;14495;48.116;11.676;2022-07-11T00:31:45;3.05;;;1.35;;
26936;SDS011;14495;48.116;11.676;2022-07-11T00:34:10;2.47;;;1.27;;
26936;SDS011;14495;48.116;11.676;2022-07-11T00:36:35;2.50;;;1.13;;
26936;SDS011;14495;48.116;11.676;2022-07-11T00:39:01;3.80;;;1.40;;
26936;SDS011;14495;48.116;11.676;2022-07-11T00:41:27;4.78;;;1.50;;
26936;SDS011;14495;48.116;11.676;2022-07-11T00:43:54;2.40;;;1.30;;
26936;SDS011;14495;48.116;11.676;2022-07-11T00:46:24;2.60;;;1.30;;
26936;SDS011;14495;48.116;11.676;2022-07-11T00:48:50;3.95;;;1.10;;
26936;SDS011;14495;48.116;11.676;2022-07-11T00:51:20;2.33;;;1.20;;
26936;SDS011;14495;48.116;11.676;2022-07-11T00:53:48;2.07;;;1.27;;
26936;SDS011;14495;48.116;11.676;2022-07-11T00:56:16;2.00;;;1.23;;
26936;SDS011;14495;48.116;11.676;2022-07-11T00:58:44;4.28;;;1.30;;
26936;SDS011;14495;48.116;11.676;2022-07-11T01:01:09;1.80;;;1.10;;
26936;SDS011;14495;48.116;11.676;2022-07-11T01:03:35;3.70;;;1.40;;
26936;SDS011;14495;48.116;11.676;2022-07-11T01:06:01;3.25;;;1.23;;
26936;SDS011;14495;48.116;11.676;2022-07-11T01:08:27;3.05;;;1.30;;
26936;SDS011;14495;48.116;11.676;2022-07-11T01:10:56;4.68;;;1.20;;
26936;SDS011;14495;48.116;11.676;2022-07-11T01:13:25;2.08;;;1.20;;
26936;SDS011;14495;48.116;11.676;2022-07-11T01:15:50;2.10;;;1.20;;
26936;SDS011;14495;48.116;11.676;2022-07-11T01:18:15;2.95;;;1.45;;
26936;SDS011;14495;48.116;11.676;2022-07-11T01:20:41;3.30;;;1.42;;
26936;SDS011;14495;48.116;11.676;2022-07-11T01:23:06;3.22;;;1.38;;
26936;SDS011;14495;48.116;11.676;2022-07-11T01:25:32;3.15;;;1.40;;
26936;SDS011;14495;48.116;11.676;2022-07-11T01:27:58;2.88;;;1.20;;
26936;SDS011;14495;48.116;11.676;2022-07-11T01:30:24;3.47;;;1.65;;
26936;SDS011;14495;48.116;11.676;2022-07-11T01:32:51;2.05;;;1.20;;
26936;SDS011;14495;48.116;11.676;2022-07-11T01:35:17;3.83;;;1.27;;
26936;SDS011;14495;48.116;11.676;2022-07-11T01:37:43;2.50;;;1.20;;
26936;SDS011;14495;48.116;11.676;2022-07-11T01:40:09;5.65;;;1.20;;
26936;SDS011;14495;48.116;11.676;2022-07-11T01:42:35;3.08;;;1.50;;
26936;SDS011;14495;48.116;11.676;2022-07-11T01:45:00;2.60;;;1.13;;
26936;SDS011;14495;48.116;11.676;2022-07-11T01:47:25;2.40;;;1.17;;
26936;SDS011;14495;48.116;11.676;2022-07-11T01:49:51;2.13;;;1.33;;
26936;SDS011;14495;48.116;11.676;2022-07-11T01:52:16;2.05;;;1.27;;
26936;SDS011;14495;48.116;11.676;2022-07-11T01:54:41;1.63;;;1.15;;
26936;SDS011;14495;48.116;11.676;2022-07-11T01:57:07;2.05;;;1.17;;
26936;SDS011;14495;48.116;11.676;2022-07-11T01:59:34;2.08;;;1.20;;
26936;SDS011;14495;48.116;11.676;2022-07-11T02:02:00;3.67;;;1.58;;
26936;SDS011;14495;48.116;11.676;2022-07-11T02:04:25;3.20;;;1.40;;
26936;SDS011;14495;48.116;11.676;2022-07-11T02:06:50;2.78;;;1.48;;
26936;SDS011;14495;48.116;11.676;2022-07-11T02:09:16;1.80;;;0.98;;
26936;SDS011;14495;48.116;11.676;2022-07-11T02:11:41;3.08;;;1.40;;
26936;SDS011;14495;48.116;11.676;2022-07-11T02:14:06;2.28;;;1.20;;
26936;SDS011;14495;48.116;11.676;2022-07-11T02:16:32;3.53;;;1.08;;
26936;SDS011;14495;48.116;11.676;2022-07-11T02:18:57;3.22;;;1.20;;
26936;SDS011;14495;48.116;11.676;2022-07-11T02:21:22;3.45;;;1.20;;
26936;SDS011;14495;48.116;11.676;2022-07-11T02:23:48;4.88;;;1.42;;
26936;SDS011;14495;48.116;11.676;2022-07-11T02:26:13;4.15;;;1.38;;
26936;SDS011;14495;48.116;11.676;2022-07-11T02:28:38;3.60;;;1.10;;
26936;SDS011;14495;48.116;11.676;2022-07-11T02:31:05;3.17;;;1.25;;
26936;SDS011;14495;48.116;11.676;2022-07-11T02:33:30;4.05;;;1.45;;
26936;SDS011;14495;48.116;11.676;2022-07-11T02:35:56;1.52;;;1.27;;
26936;SDS011;14495;48.116;11.676;2022-07-11T02:38:21;2.00;;;1.42;;
26936;SDS011;14495;48.116;11.676;2022-07-11T02:40:46;5.05;;;1.55;;
26936;SDS011;14495;48.116;11.676;2022-07-11T02:43:12;1.75;;;1.13;;
26936;SDS011;14495;48.116;11.676;2022-07-11T02:45:37;2.83;;;1.20;;
26936;SDS011;14495;48.116;11.676;2022-07-11T02:48:03;3.22;;;1.45;;
26936;SDS011;14495;48.116;11.676;2022-07-11T02:50:28;4.18;;;1.33;;
26936;SDS011;14495;48.116;11.676;2022-07-11T02:52:54;1.95;;;1.23;;
26936;SDS011;14495;48.116;11.676;2022-07-11T02:55:19;4.72;;;1.30;;
26936;SDS011;14495;48.116;11.676;2022-07-11T02:57:45;2.42;;;1.42;;
26936;SDS011;14495;48.116;11.676;2022-07-11T03:00:11;3.42;;;1.10;;
26936;SDS011;14495;48.116;11.676;2022-07-11T03:02:38;1.52;;;1.02;;
26936;SDS011;14495;48.116;11.676;2022-07-11T03:05:04;5.47;;;1.30;;
26936;SDS011;14495;48.116;11.676;2022-07-11T03:07:29;4.03;;;1.30;;
26936;SDS011;14495;48.116;11.676;2022-07-11T03:09:55;3.22;;;1.38;;
26936;SDS011;14495;48.116;11.676;2022-07-11T03:12:20;3.58;;;1.50;;
26936;SDS011;14495;48.116;11.676;2022-07-11T03:14:46;4.15;;;1.20;;
26936;SDS011;14495;48.116;11.676;2022-07-11T03:17:12;4.93;;;1.23;;
26936;SDS011;14495;48.116;11.676;2022-07-11T03:19:37;5.50;;;1.38;;
26936;SDS011;14495;48.116;11.676;2022-07-11T03:22:03;2.15;;;1.50;;
26936;SDS011;14495;48.116;11.676;2022-07-11T03:24:29;5.32;;;1.77;;
26936;SDS011;14495;48.116;11.676;2022-07-11T03:26:54;2.10;;;1.30;;
26936;SDS011;14495;48.116;11.676;2022-07-11T03:29:19;3.55;;;1.50;;
26936;SDS011;14495;48.116;11.676;2022-07-11T03:31:45;3.40;;;1.50;;
26936;SDS011;14495;48.116;11.676;2022-07-11T03:34:10;4.68;;;1.02;;
26936;SDS011;14495;48.116;11.676;2022-07-11T03:36:35;5.70;;;1.60;;
26936;SDS011;14495;48.116;11.676;2022-07-11T03:39:01;4.47;;;1.38;;
26936;SDS011;14495;48.116;11.676;2022-07-11T03:41:26;3.08;;;1.33;;
26936;SDS011;14495;48.116;11.676;2022-07-11T03:43:52;3.60;;;1.50;;
26936;SDS011;14495;48.116;11.676;2022-07-11T03:46:17;2.53;;;1.27;;
26936;SDS011;14495;48.116;11.676;2022-07-11T03:48:42;2.42;;;1.30;;
26936;SDS011;14495;48.116;11.676;2022-07-11T03:51:09;1.85;;;1.30;;
26936;SDS011;14495;48.116;11.676;2022-07-11T03:53:34;3.60;;;1.45;;
26936;SDS011;14495;48.116;11.676;2022-07-11T03:55:59;2.40;;;1.23;;
26936;SDS011;14495;48.116;11.676;2022-07-11T03:58:25;7.70;;;1.40;;
26936;SDS011;14495;48.116;11.676;2022-07-11T04:00:50;2.53;;;1.48;;
26936;SDS011;14495;48.116;11.676;2022-07-11T04:03:16;6.07;;;1.55;;
26936;SDS011;14495;48.116;11.676;2022-07-11T04:05:41;5.18;;;1.40;;
26936;SDS011;14495;48.116;11.676;2022-07-11T04:08:06;2.00;;;1.17;;
26936;SDS011;14495;48.116;11.676;2022-07-11T04:10:32;5.05;;;1.27;;
26936;SDS011;14495;48.116;11.676;2022-07-11T04:12:57;2.53;;;1.35;;
26936;SDS011;14495;48.116;11.676;2022-07-11T04:15:22;3.83;;;1.50;;
26936;SDS011;14495;48.116;11.676;2022-07-11T04:17:48;5.07;;;1.25;;
26936;SDS011;14495;48.116;11.676;2022-07-11T04:20:13;1.73;;;1.30;;
26936;SDS011;14495;48.116;11.676;2022-07-11T04:22:38;3.13;;;1.40;;
26936;SDS011;14495;48.116;11.676;2022-07-11T04:25:04;2.10;;;1.10;;
26936;SDS011;14495;48.116;11.676;2022-07-11T04:27:29;2.70;;;1.30;;
26936;SDS011;14495;48.116;11.676;2022-07-11T04:29:55;1.42;;;1.15;;
26936;SDS011;14495;48.116;11.676;2022-07-11T04:32:20;3.97;;;1.45;;
26936;SDS011;14495;48.116;11.676;2022-07-11T04:34:46;2.47;;;1.30;;
26936;SDS011;14495;48.116;11.676;2022-07-11T04:37:11;3.67;;;1.25;;
26936;SDS011;14495;48.116;11.676;2022-07-11T04:39:37;1.90;;;1.13;;
26936;SDS011;14495;48.116;11.676;2022-07-11T04:42:02;2.17;;;1.20;;
26936;SDS011;14495;48.116;11.676;2022-07-11T04:44:28;5.40;;;1.20;;
26936;SDS011;14495;48.116;11.676;2022-07-11T04:46:53;5.82;;;1.63;;
26936;SDS011;14495;48.116;11.676;2022-07-11T04:49:19;4.43;;;1.15;;
26936;SDS011;14495;48.116;11.676;2022-07-11T04:51:44;4.03;;;1.20;;
26936;SDS011;14495;48.116;11.676;2022-07-11T04:54:10;3.42;;;1.23;;
26936;SDS011;14495;48.116;11.676;2022-07-11T04:56:36;3.22;;;1.10;;
26936;SDS011;14495;48.116;11.676;2022-07-11T04:59:02;3.50;;;1.50;;
26936;SDS011;14495;48.116;11.676;2022-07-11T05:01:28;3.33;;;1.25;;
26936;SDS011;14495;48.116;11.676;2022-07-11T05:03:54;4.05;;;1.30;;
26936;SDS011;14495;48.116;11.676;2022-07-11T05:06:19;3.67;;;1.30;;
26936;SDS011;14495;48.116;11.676;2022-07-11T05:08:45;1.45;;;1.00;;
26936;SDS011;14495;48.116;11.676;2022-07-11T05:11:10;3.35;;;1.25;;
26936;SDS011;14495;48.116;11.676;2022-07-11T05:13:36;5.28;;;1.50;;
26936;SDS011;14495;48.116;11.676;2022-07-11T05:16:02;4.68;;;1.30;;
26936;SDS011;14495;48.116;11.676;2022-07-11T05:18:28;5.05;;;1.42;;
26936;SDS011;14495;48.116;11.676;2022-07-11T05:20:53;6.47;;;1.40;;
26936;SDS011;14495;48.116;11.676;2022-07-11T05:23:19;3.90;;;1.23;;
26936;SDS011;14495;48.116;11.676;2022-07-11T05:25:44;2.53;;;1.00;;
26936;SDS011;14495;48.116;11.676;2022-07-11T05:28:09;2.65;;;1.10;;
26936;SDS011;14495;48.116;11.676;2022-07-11T05:30:34;2.75;;;1.20;;
26936;SDS011;14495;48.116;11.676;2022-07-11T05:33:00;3.65;;;1.10;;
26936;SDS011;14495;48.116;11.676;2022-07-11T05:35:25;3.97;;;1.55;;
26936;SDS011;14495;48.116;11.676;2022-07-11T05:37:51;3.55;;;1.20;;
26936;SDS011;14495;48.116;11.676;2022-07-11T05:40:16;5.45;;;1.13;;
26936;SDS011;14495;48.116;11.676;2022-07-11T05:42:42;3.95;;;1.10;;
26936;SDS011;14495;48.116;11.676;2022-07-11T05:45:07;5.75;;;1.20;;
26936;SDS011;14495;48.116;11.676;2022-07-11T05:47:33;6.50;;;1.20;;
26936;SDS011;14495;48.116;11.676;2022-07-11T05:49:59;4.60;;;2.03;;
26936;SDS011;14495;48.116;11.676;2022-07-11T05:52:24;4.10;;;1.42;;
26936;SDS011;14495;48.116;11.676;2022-07-11T05:54:49;5.05;;;1.30;;
26936;SDS011;14495;48.116;11.676;2022-07-11T05:57:15;5.82;;;1.20;;
26936;SDS011;14495;48.116;11.676;2022-07-11T05:59:40;4.32;;;1.20;;
26936;SDS011;14495;48.116;11.676;2022-07-11T06:02:05;5.07;;;1.17;;
26936;SDS011;14495;48.116;11.676;2022-07-11T06:04:33;4.00;;;1.58;;
26936;SDS011;14495;48.116;11.676;2022-07-11T06:06:59;5.30;;;1.25;;
26936;SDS011;14495;48.116;11.676;2022-07-11T06:09:24;4.13;;;1.27;;
26936;SDS011;14495;48.116;11.676;2022-07-11T06:11:49;4.60;;;0.98;;
26936;SDS011;14495;48.116;11.676;2022-07-11T06:14:15;6.18;;;1.30;;
26936;SDS011;14495;48.116;11.676;2022-07-11T06:16:41;3.67;;;1.40;;
26936;SDS011;14495;48.116;11.676;2022-07-11T06:19:06;8.40;;;1.33;;
26936;SDS011;14495;48.116;11.676;2022-07-11T06:21:32;10.85;;;1.42;;
26936;SDS011;14495;48.116;11.676;2022-07-11T06:23:57;4.97;;;1.30;;
26936;SDS011;14495;48.116;11.676;2022-07-11T06:26:22;2.13;;;1.00;;
26936;SDS011;14495;48.116;11.676;2022-07-11T06:28:48;4.28;;;1.20;;
26936;SDS011;14495;48.116;11.676;2022-07-11T06:31:13;4.13;;;1.25;;
26936;SDS011;14495;48.116;11.676;2022-07-11T06:33:39;2.85;;;1.15;;
26936;SDS011;14495;48.116;11.676;2022-07-11T06:36:05;4.63;;;1.25;;
26936;SDS011;14495;48.116;11.676;2022-07-11T06:38:31;6.07;;;1.50;;
26936;SDS011;14495;48.116;11.676;2022-07-11T06:40:57;2.42;;;1.13;;
26936;SDS011;14495;48.116;11.676;2022-07-11T06:43:23;5.05;;;1.48;;
26936;SDS011;14495;48.116;11.676;2022-07-11T06:45:48;5.53;;;1.30;;
26936;SDS011;14495;48.116;11.676;2022-07-11T06:48:14;3.65;;;1.02;;
26936;SDS011;14495;48.116;11.676;2022-07-11T06:50:40;3.97;;;1.38;;
26936;SDS011;14495;48.116;11.676;2022-07-11T06:53:05;3.30;;;1.00;;
26936;SDS011;14495;48.116;11.676;2022-07-11T06:55:31;3.15;;;1.00;;
26936;SDS011;14495;48.116;11.676;2022-07-11T06:57:57;3.53;;;1.13;;
26936;SDS011;14495;48.116;11.676;2022-07-11T07:00:23;3.53;;;0.80;;
26936;SDS011;14495;48.116;11.676;2022-07-11T07:02:48;3.90;;;1.17;;
26936;SDS011;14495;48.116;11.676;2022-07-11T07:05:14;3.33;;;1.10;;
26936;SDS011;14495;48.116;11.676;2022-07-11T07:07:40;2.63;;;0.80;;
26936;SDS011;14495;48.116;11.676;2022-07-11T07:10:05;5.18;;;1.20;;
26936;SDS011;14495;48.116;11.676;2022-07-11T07:12:31;8.32;;;1.00;;
26936;SDS011;14495;48.116;11.676;2022-07-11T07:14:59;4.63;;;1.20;;
26936;SDS011;14495;48.116;11.676;2022-07-11T07:17:25;3.67;;;1.20;;
26936;SDS011;14495;48.116;11.676;2022-07-11T07:19:50;3.92;;;1.10;;
26936;SDS011;14495;48.116;11.676;2022-07-11T07:22:15;3.83;;;0.90;;
26936;SDS011;14495;48.116;11.676;2022-07-11T07:24:44;7.18;;;1.05;;
26936;SDS011;14495;48.116;11.676;2022-07-11T07:27:10;6.45;;;1.25;;
26936;SDS011;14495;48.116;11.676;2022-07-11T07:29:35;6.50;;;1.42;;
26936;SDS011;14495;48.116;11.676;2022-07-11T07:32:01;2.00;;;0.90;;
26936;SDS011;14495;48.116;11.676;2022-07-11T07:34:27;6.18;;;1.23;;
26936;SDS011;14495;48.116;11.676;2022-07-11T07:36:53;3.40;;;1.17;;
26936;SDS011;14495;48.116;11.676;2022-07-11T07:39:18;4.13;;;1.25;;
26936;SDS011;14495;48.116;11.676;2022-07-11T07:41:44;4.05;;;0.95;;
26936;SDS011;14495;48.116;11.676;2022-07-11T07:44:09;4.35;;;1.23;;
26936;SDS011;14495;48.116;11.676;2022-07-11T07:46:34;6.43;;;1.27;;
26936;SDS011;14495;48.116;11.676;2022-07-11T07:49:00;4.85;;;1.15;;
26936;SDS011;14495;48.116;11.676;2022-07-11T07:51:26;8.48;;;1.02;;
26936;SDS011;14495;48.116;11.676;2022-07-11T07:53:51;10.00;;;1.25;;
26936;SDS011;14495;48.116;11.676;2022-07-11T07:56:17;3.38;;;1.40;;
26936;SDS011;14495;48.116;11.676;2022-07-11T07:58:42;4.55;;;1.10;;
26936;SDS011;14495;48.116;11.676;2022-07-11T08:01:08;2.53;;;0.77;;
26936;SDS011;14495;48.116;11.676;2022-07-11T08:03:51;2.33;;;0.90;;
26936;SDS011;14495;48.116;11.676;2022-07-11T08:06:17;5.82;;;1.52;;
26936;SDS011;14495;48.116;11.676;2022-07-11T08:08:43;7.10;;;1.30;;
26936;SDS011;14495;48.116;11.676;2022-07-11T08:11:08;5.03;;;1.00;;
26936;SDS011;14495;48.116;11.676;2022-07-11T08:13:33;3.50;;;1.17;;
26936;SDS011;14495;48.116;11.676;2022-07-11T08:15:59;3.55;;;1.30;;
26936;SDS011;14495;48.116;11.676;2022-07-11T08:18:25;6.15;;;1.27;;
26936;SDS011;14495;48.116;11.676;2022-07-11T08:20:53;3.90;;;1.00;;
26936;SDS011;14495;48.116;11.676;2022-07-11T08:23:19;2.85;;;1.00;;
26936;SDS011;14495;48.116;11.676;2022-07-11T08:25:45;5.32;;;1.20;;
26936;SDS011;14495;48.116;11.676;2022-07-11T08:28:10;3.75;;;1.00;;
26936;SDS011;14495;48.116;11.676;2022-07-11T08:30:35;4.68;;;1.42;;
26936;SDS011;14495;48.116;11.676;2022-07-11T08:33:01;2.67;;;1.10;;
26936;SDS011;14495;48.116;11.676;2022-07-11T08:35:26;3.65;;;1.10;;
26936;SDS011;14495;48.116;11.676;2022-07-11T08:37:51;4.93;;;1.10;;
26936;SDS011;14495;48.116;11.676;2022-07-11T08:40:16;7.07;;;1.33;;
26936;SDS011;14495;48.116;11.676;2022-07-11T08:42:43;3.17;;;0.90;;
26936;SDS011;14495;48.116;11.676;2022-07-11T08:45:12;2.15;;;1.00;;
26936;SDS011;14495;48.116;11.676;2022-07-11T08:47:39;2.47;;;1.20;;
26936;SDS011;14495;48.116;11.676;2022-07-11T08:50:05;3.25;;;1.10;;
26936;SDS011;14495;48.116;11.676;2022-07-11T08:52:31;5.18;;;0.80;;
26936;SDS011;14495;48.116;11.676;2022-07-11T08:54:57;1.40;;;0.60;;
26936;SDS011;14495;48.116;11.676;2022-07-11T08:57:23;3.40;;;1.13;;
26936;SDS011;14495;48.116;11.676;2022-07-11T08:59:49;1.85;;;0.82;;
26936;SDS011;14495;48.116;11.676;2022-07-11T09:02:19;3.63;;;0.77;;
26936;SDS011;14495;48.116;11.676;2022-07-11T09:04:45;1.27;;;0.68;;
26936;SDS011;14495;48.116;11.676;2022-07-11T09:07:11;2.28;;;0.40;;
26936;SDS011;14495;48.116;11.676;2022-07-11T09:09:37;1.58;;;0.50;;
26936;SDS011;14495;48.116;11.676;2022-07-11T09:12:09;0.98;;;0.65;;
26936;SDS011;14495;48.116;11.676;2022-07-11T09:14:35;2.13;;;0.80;;
26936;SDS011;14495;48.116;11.676;2022-07-11T09:17:02;2.83;;;1.00;;
26936;SDS011;14495;48.116;11.676;2022-07-11T09:19:30;5.10;;;1.20;;
26936;SDS011;14495;48.116;11.676;2022-07-11T09:25:04;3.45;;;1.05;;
26936;SDS011;14495;48.116;11.676;2022-07-11T09:27:49;1.58;;;0.55;;
26936;SDS011;14495;48.116;11.676;2022-07-11T09:30:18;1.70;;;0.50;;
26936;SDS011;14495;48.116;11.676;2022-07-11T09:33:01;1.67;;;0.52;;
26936;SDS011;14495;48.116;11.676;2022-07-11T09:35:29;0.70;;;0.40;;
26936;SDS011;14495;48.116;11.676;2022-07-11T09:37:56;2.22;;;0.50;;
26936;SDS011;14495;48.116;11.676;2022-07-11T09:40:22;1.02;;;0.40;;
26936;SDS011;14495;48.116;11.676;2022-07-11T09:42:49;1.05;;;0.50;;
26936;SDS011;14495;48.116;11.676;2022-07-11T09:45:16;1.85;;;0.55;;
26936;SDS011;14495;48.116;11.676;2022-07-11T09:47:52;2.35;;;0.60;;
26936;SDS011;14495;48.116;11.676;2022-07-11T09:53:01;0.93;;;0.43;;
26936;SDS011;14495;48.116;11.676;2022-07-11T09:55:29;1.65;;;0.65;;
26936;SDS011;14495;48.116;11.676;2022-07-11T09:57:55;0.98;;;0.50;;
26936;SDS011;14495;48.116;11.676;2022-07-11T10:00:21;2.45;;;0.60;;
26936;SDS011;14495;48.116;11.676;2022-07-11T10:02:46;2.90;;;0.68;;
26936;SDS011;14495;48.116;11.676;2022-07-11T10:05:12;2.28;;;0.57;;
26936;SDS011;14495;48.116;11.676;2022-07-11T10:07:37;1.48;;;0.50;;
26936;SDS011;14495;48.116;11.676;2022-07-11T10:10:04;0.63;;;0.38;;
26936;SDS011;14495;48.116;11.676;2022-07-11T10:12:31;1.85;;;0.47;;
26936;SDS011;14495;48.116;11.676;2022-07-11T10:14:58;0.43;;;0.40;;
26936;SDS011;14495;48.116;11.676;2022-07-11T10:20:34;0.75;;;0.40;;
26936;SDS011;14495;48.116;11.676;2022-07-11T10:25:41;0.22;;;0.20;;
26936;SDS011;14495;48.116;11.676;2022-07-11T10:30:42;0.68;;;0.40;;
26936;SDS011;14495;48.116;11.676;2022-07-11T10:33:09;0.85;;;0.40;;
26936;SDS011;14495;48.116;11.676;2022-07-11T10:35:34;0.45;;;0.40;;
26936;SDS011;14495;48.116;11.676;2022-07-11T10:38:00;1.15;;;0.45;;
26936;SDS011;14495;48.116;11.676;2022-07-11T10:40:43;2.70;;;0.40;;
26936;SDS011;14495;48.116;11.676;2022-07-11T10:43:15;0.50;;;0.40;;
26936;SDS011;14495;48.116;11.676;2022-07-11T10:45:58;0.65;;;0.47;;
26936;SDS011;14495;48.116;11.676;2022-07-11T10:48:24;0.75;;;0.30;;
26936;SDS011;14495;48.116;11.676;2022-07-11T10:51:03;0.70;;;0.40;;
26936;SDS011;14495;48.116;11.676;2022-07-11T10:56:17;2.50;;;0.55;;
26936;SDS011;14495;48.116;11.676;2022-07-11T10:58:45;1.05;;;0.43;;
26936;SDS011;14495;48.116;11.676;2022-07-11T11:01:25;1.58;;;0.57;;
26936;SDS011;14495;48.116;11.676;2022-07-11T11:03:52;0.70;;;0.50;;
26936;SDS011;14495;48.116;11.676;2022-07-11T11:06:56;0.60;;;0.50;;
26936;SDS011;14495;48.116;11.676;2022-07-11T11:09:37;1.02;;;0.50;;
26936;SDS011;14495;48.116;11.676;2022-07-11T11:12:03;1.02;;;0.50;;
26936;SDS011;14495;48.116;11.676;2022-07-11T11:14:29;1.08;;;0.52;;
26936;SDS011;14495;48.116;11.676;2022-07-11T11:16:55;0.75;;;0.50;;
26936;SDS011;14495;48.116;11.676;2022-07-11T11:20:02;0.65;;;0.40;;
26936;SDS011;14495;48.116;11.676;2022-07-11T11:22:29;2.30;;;0.40;;
26936;SDS011;14495;48.116;11.676;2022-07-11T11:24:56;0.45;;;0.30;;
26936;SDS011;14495;48.116;11.676;2022-07-11T11:27:25;3.03;;;0.45;;
26936;SDS011;14495;48.116;11.676;2022-07-11T11:29:54;0.65;;;0.40;;
26936;SDS011;14495;48.116;11.676;2022-07-11T11:32:21;0.95;;;0.30;;
26936;SDS011;14495;48.116;11.676;2022-07-11T11:34:48;2.63;;;0.50;;
26936;SDS011;14495;48.116;11.676;2022-07-11T11:37:14;0.30;;;0.30;;
26936;SDS011;14495;48.116;11.676;2022-07-11T11:39:41;1.30;;;0.50;;
26936;SDS011;14495;48.116;11.676;2022-07-11T11:42:16;0.77;;;0.40;;
26936;SDS011;14495;48.116;11.676;2022-07-11T11:44:55;0.93;;;0.50;;
26936;SDS011;14495;48.116;11.676;2022-07-11T11:47:28;0.70;;;0.40;;
26936;SDS011;14495;48.116;11.676;2022-07-11T11:49:54;0.30;;;0.30;;
26936;SDS011;14495;48.116;11.676;2022-07-11T11:52:20;1.10;;;0.50;;
26936;SDS011;14495;48.116;11.676;2022-07-11T11:54:56;2.85;;;0.70;;
26936;SDS011;14495;48.116;11.676;2022-07-11T11:57:23;1.10;;;0.60;;
26936;SDS011;14495;48.116;11.676;2022-07-11T11:59:51;1.02;;;0.40;;
26936;SDS011;14495;48.116;11.676;2022-07-11T12:02:23;3.05;;;0.45;;
26936;SDS011;14495;48.116;11.676;2022-07-11T12:04:52;1.33;;;0.57;;
26936;SDS011;14495;48.116;11.676;2022-07-11T12:07:25;2.70;;;0.60;;
26936;SDS011;14495;48.116;11.676;2022-07-11T12:09:52;1.02;;;0.60;;
26936;SDS011;14495;48.116;11.676;2022-07-11T12:12:26;1.85;;;0.60;;
26936;SDS011;14495;48.116;11.676;2022-07-11T12:15:27;0.85;;;0.60;;
26936;SDS011;14495;48.116;11.676;2022-07-11T12:17:56;1.10;;;0.60;;
26936;SDS011;14495;48.116;11.676;2022-07-11T12:20:34;1.95;;;0.45;;
26936;SDS011;14495;48.116;11.676;2022-07-11T12:23:08;0.95;;;0.57;;
26936;SDS011;14495;48.116;11.676;2022-07-11T12:25:35;3.15;;;0.57;;
26936;SDS011;14495;48.116;11.676;2022-07-11T12:28:01;3.38;;;0.75;;
26936;SDS011;14495;48.116;11.676;2022-07-11T12:30:26;3.53;;;0.75;;
26936;SDS011;14495;48.116;11.676;2022-07-11T12:33:02;2.25;;;0.60;;
26936;SDS011;14495;48.116;11.676;2022-07-11T12:35:28;1.02;;;0.60;;
26936;SDS011;14495;48.116;11.676;2022-07-11T12:37:54;1.45;;;0.60;;
26936;SDS011;14495;48.116;11.676;2022-07-11T12:40:19;1.00;;;0.70;;
26936;SDS011;14495;48.116;11.676;2022-07-11T12:42:44;0.80;;;0.55;;
26936;SDS011;14495;48.116;11.676;2022-07-11T12:45:11;3.17;;;0.63;;
26936;SDS011;14495;48.116;11.676;2022-07-11T12:47:38;1.42;;;0.80;;
26936;SDS011;14495;48.116;11.676;2022-07-11T12:52:45;3.15;;;0.77;;
26936;SDS011;14495;48.116;11.676;2022-07-11T12:58:09;2.17;;;0.98;;
26936;SDS011;14495;48.116;11.676;2022-07-11T13:01:00;2.10;;;0.85;;
26936;SDS011;14495;48.116;11.676;2022-07-11T13:03:29;1.60;;;0.50;;
26936;SDS011;14495;48.116;11.676;2022-07-11T13:05:55;1.23;;;0.52;;
26936;SDS011;14495;48.116;11.676;2022-07-11T13:08:25;1.50;;;0.43;;
26936;SDS011;14495;48.116;11.676;2022-07-11T13:11:07;3.95;;;0.57;;
26936;SDS011;14495;48.116;11.676;2022-07-11T13:13:41;5.97;;;0.80;;
26936;SDS011;14495;48.116;11.676;2022-07-11T13:16:07;1.38;;;0.80;;
26936;SDS011;14495;48.116;11.676;2022-07-11T13:18:33;0.80;;;0.70;;
26936;SDS011;14495;48.116;11.676;2022-07-11T13:20:59;3.30;;;0.70;;
26936;SDS011;14495;48.116;11.676;2022-07-11T13:23:25;1.75;;;0.90;;
26936;SDS011;14495;48.116;11.676;2022-07-11T13:25:50;1.20;;;0.60;;
26936;SDS011;14495;48.116;11.676;2022-07-11T13:28:16;0.88;;;0.65;;
26936;SDS011;14495;48.116;11.676;2022-07-11T13:30:41;2.90;;;0.90;;
26936;SDS011;14495;48.116;11.676;2022-07-11T13:33:07;2.92;;;0.80;;
26936;SDS011;14495;48.116;11.676;2022-07-11T13:35:32;0.85;;;0.70;;
26936;SDS011;14495;48.116;11.676;2022-07-11T13:37:58;1.95;;;0.65;;
26936;SDS011;14495;48.116;11.676;2022-07-11T13:40:23;1.35;;;0.70;;
26936;SDS011;14495;48.116;11.676;2022-07-11T13:42:50;2.80;;;0.88;;
26936;SDS011;14495;48.116;11.676;2022-07-11T13:45:17;1.90;;;0.65;;
26936;SDS011;14495;48.116;11.676;2022-07-11T13:47:45;2.05;;;0.60;;
26936;SDS011;14495;48.116;11.676;2022-07-11T13:50:12;2.40;;;0.65;;
26936;SDS011;14495;48.116;11.676;2022-07-11T13:52:37;0.60;;;0.50;;
26936;SDS011;14495;48.116;11.676;2022-07-11T13:55:03;2.65;;;0.60;;
26936;SDS011;14495;48.116;11.676;2022-07-11T13:57:28;0.95;;;0.60;;
26936;SDS011;14495;48.116;11.676;2022-07-11T13:59:54;1.77;;;0.88;;
26936;SDS011;14495;48.116;11.676;2022-07-11T14:02:21;3.72;;;0.52;;
26936;SDS011;14495;48.116;11.676;2022-07-11T14:04:46;1.38;;;0.55;;
26936;SDS011;14495;48.116;11.676;2022-07-11T14:07:12;1.38;;;0.70;;
26936;SDS011;14495;48.116;11.676;2022-07-11T14:09:37;3.17;;;0.80;;
26936;SDS011;14495;48.116;11.676;2022-07-11T14:12:04;2.95;;;0.65;;
26936;SDS011;14495;48.116;11.676;2022-07-11T14:14:30;1.50;;;0.60;;
26936;SDS011;14495;48.116;11.676;2022-07-11T14:16:57;0.75;;;0.55;;
26936;SDS011;14495;48.116;11.676;2022-07-11T14:19:23;3.47;;;0.70;;
26936;SDS011;14495;48.116;11.676;2022-07-11T14:21:49;1.23;;;0.60;;
26936;SDS011;14495;48.116;11.676;2022-07-11T14:24:14;1.55;;;0.70;;
26936;SDS011;14495;48.116;11.676;2022-07-11T14:26:41;2.92;;;0.50;;
26936;SDS011;14495;48.116;11.676;2022-07-11T14:29:06;2.53;;;0.60;;
26936;SDS011;14495;48.116;11.676;2022-07-11T14:31:32;1.17;;;0.75;;
26936;SDS011;14495;48.116;11.676;2022-07-11T14:33:58;1.13;;;0.65;;
26936;SDS011;14495;48.116;11.676;2022-07-11T14:36:25;1.77;;;0.90;;
26936;SDS011;14495;48.116;11.676;2022-07-11T14:38:51;0.80;;;0.60;;
26936;SDS011;14495;48.116;11.676;2022-07-11T14:41:17;1.63;;;0.80;;
26936;SDS011;14495;48.116;11.676;2022-07-11T14:43:44;0.90;;;0.70;;
26936;SDS011;14495;48.116;11.676;2022-07-11T14:46:10;1.27;;;0.68;;
26936;SDS011;14495;48.116;11.676;2022-07-11T14:48:36;1.30;;;0.75;;
26936;SDS011;14495;48.116;11.676;2022-07-11T14:51:02;1.30;;;0.70;;
26936;SDS011;14495;48.116;11.676;2022-07-11T14:53:27;1.45;;;0.70;;